Time;durP1;ratioP1;P1;durP2;ratioP2;P2;SDS_P1;SDS_P2;PMS_P1;PMS_P2;Temp;Humidity;BMP_temperature;BMP_pressure;BME280_temperature;BME280_humidity;BME280_pressure;Samples;Min_cycle;Max_cycle;Signal;HPM_P1;HPM_P2
2022/11/23 00:00:35;;;;;;;1.50;1.40;;;4.10;99.90;;;;;;5077892;28;20024;-76
2022/11/23 00:03:01;;;;;;;5.28;1.52;;;4.10;99.90;;;;;;5071449;28;20051;-76
2022/11/23 00:05:28;;;;;;;1.33;1.08;;;4.10;99.90;;;;;;5060486;28;20048;-76
2022/11/23 00:07:54;;;;;;;4.03;0.80;;;4.10;99.90;;;;;;5060292;28;20663;-77
2022/11/23 00:10:20;;;;;;;3.60;1.58;;;4.10;99.90;;;;;;5070372;28;20706;-76
2022/11/23 00:12:45;;;;;;;0.85;0.85;;;4.10;99.90;;;;;;5051058;28;20119;-76
2022/11/23 00:15:13;;;;;;;0.90;0.90;;;4.10;99.90;;;;;;5069265;28;20047;-75
2022/11/23 00:17:39;;;;;;;0.80;0.77;;;4.10;99.90;;;;;;5068973;28;20060;-75
2022/11/23 00:20:06;;;;;;;2.72;0.65;;;4.10;99.90;;;;;;5068911;28;20063;-75
2022/11/23 00:22:32;;;;;;;1.15;0.70;;;4.10;99.90;;;;;;5068971;28;20024;-76
2022/11/23 00:24:58;;;;;;;2.45;0.77;;;4.10;99.90;;;;;;5069378;28;20418;-76
2022/11/23 00:27:23;;;;;;;14.10;0.93;;;4.00;99.90;;;;;;5068814;28;20033;-75
2022/11/23 00:29:49;;;;;;;2.35;1.10;;;4.10;99.90;;;;;;5069225;28;20120;-75
2022/11/23 00:32:15;;;;;;;1.05;0.70;;;4.00;99.90;;;;;;5071307;28;20045;-75
2022/11/23 00:34:40;;;;;;;6.00;0.60;;;4.10;99.90;;;;;;5088251;28;20031;-75
2022/11/23 00:37:06;;;;;;;7.32;1.45;;;3.90;99.90;;;;;;5089453;28;20077;-76
2022/11/23 00:39:32;;;;;;;0.77;0.77;;;3.90;99.90;;;;;;5086876;28;20020;-76
2022/11/23 00:41:57;;;;;;;4.47;0.98;;;4.70;99.90;;;;;;5087195;28;20076;-76
2022/11/23 00:44:23;;;;;;;2.33;0.77;;;3.90;99.90;;;;;;5089252;28;20390;-77
2022/11/23 00:46:48;;;;;;;0.30;0.30;;;4.00;99.90;;;;;;5063815;28;20125;-76
2022/11/23 00:49:14;;;;;;;0.57;0.57;;;4.00;99.90;;;;;;5068680;28;20025;-76
2022/11/23 00:51:40;;;;;;;0.73;0.47;;;4.10;99.90;;;;;;5073864;28;20100;-76
2022/11/23 00:54:06;;;;;;;0.63;0.63;;;4.20;99.90;;;;;;5070540;28;20606;-77
2022/11/23 00:56:33;;;;;;;2.60;1.25;;;4.30;99.90;;;;;;5089154;28;20102;-75
2022/11/23 00:59:00;;;;;;;1.95;0.95;;;4.40;99.90;;;;;;5071203;28;20118;-76
2022/11/23 01:01:29;;;;;;;0.32;0.32;;;4.50;99.90;;;;;;5088227;28;20028;-76
2022/11/23 01:03:57;;;;;;;6.60;0.70;;;4.60;99.90;;;;;;5070354;28;20024;-76
2022/11/23 01:06:29;;;;;;;3.33;1.08;;;4.60;99.90;;;;;;5070138;28;20032;-76
2022/11/23 01:08:57;;;;;;;0.20;0.20;;;4.60;99.90;;;;;;5070841;28;20077;-76
2022/11/23 01:11:25;;;;;;;0.57;0.57;;;4.50;99.90;;;;;;5070003;28;20501;-76
2022/11/23 01:13:51;;;;;;;2.25;0.77;;;4.40;99.90;;;;;;5088547;28;20195;-76
2022/11/23 01:16:19;;;;;;;0.93;0.50;;;4.40;99.90;;;;;;5090037;28;20275;-78
2022/11/23 01:18:45;;;;;;;1.50;1.00;;;4.40;99.90;;;;;;5088610;28;20017;-76
2022/11/23 01:21:10;;;;;;;0.80;0.65;;;4.50;99.90;;;;;;5069691;28;20059;-76
2022/11/23 01:23:36;;;;;;;0.45;0.45;;;4.50;99.90;;;;;;5070990;28;20016;-76
2022/11/23 01:26:07;;;;;;;0.70;0.70;;;4.40;99.90;;;;;;5089808;28;20034;-76
2022/11/23 01:28:34;;;;;;;0.50;0.50;;;4.50;99.90;;;;;;5090049;28;20024;-76
2022/11/23 01:31:20;;;;;;;0.45;0.30;;;4.40;99.90;;;;;;5090190;28;20040;-75
2022/11/23 01:33:46;;;;;;;0.47;0.30;;;4.30;99.90;;;;;;5090169;28;20131;-75
2022/11/23 01:36:18;;;;;;;0.60;0.60;;;4.20;99.90;;;;;;5090343;28;20039;-75
2022/11/23 01:38:45;;;;;;;0.40;0.30;;;4.20;99.90;;;;;;5091387;28;20372;-75
2022/11/23 01:41:20;;;;;;;1.40;0.50;;;4.10;99.90;;;;;;5072722;28;20434;-76
2022/11/23 01:43:46;;;;;;;0.30;0.30;;;4.10;99.90;;;;;;5091122;28;20030;-76
2022/11/23 01:46:11;;;;;;;0.30;0.30;;;4.10;99.90;;;;;;5091615;28;20037;-75
2022/11/23 01:48:39;;;;;;;0.35;0.17;;;4.20;99.90;;;;;;5090854;28;20020;-75
2022/11/23 01:51:11;;;;;;;0.22;0.22;;;4.30;99.90;;;;;;5072161;28;20060;-75
2022/11/23 01:53:38;;;;;;;4.25;1.90;;;4.20;99.90;;;;;;5090706;28;20028;-75
2022/11/23 01:56:05;;;;;;;0.50;0.50;;;4.30;99.90;;;;;;5072436;28;20024;-75
2022/11/23 01:58:38;;;;;;;1.45;0.32;;;4.20;99.90;;;;;;5090337;28;20024;-76
2022/11/23 02:01:05;;;;;;;1.85;0.50;;;4.10;99.90;;;;;;5090221;28;20416;-76
2022/11/23 02:03:33;;;;;;;0.65;0.63;;;4.60;99.90;;;;;;5072184;28;20020;-75
2022/11/23 02:06:02;;;;;;;1.98;0.63;;;4.20;99.90;;;;;;5090150;28;20051;-75
2022/11/23 02:08:28;;;;;;;1.20;0.40;;;4.30;99.90;;;;;;5072305;28;20114;-75
2022/11/23 02:10:58;;;;;;;2.42;0.95;;;4.40;99.90;;;;;;5090583;28;20040;-75
2022/11/23 02:13:24;;;;;;;1.02;0.50;;;4.40;99.90;;;;;;5071936;28;20024;-76
2022/11/23 02:15:51;;;;;;;0.98;0.60;;;4.50;99.90;;;;;;5090045;28;20447;-75
2022/11/23 02:18:24;;;;;;;1.65;0.90;;;4.40;99.90;;;;;;5089969;28;20380;-76
2022/11/23 02:20:50;;;;;;;0.55;0.30;;;4.50;99.90;;;;;;5089540;28;20020;-76
2022/11/23 02:23:52;;;;;;;2.05;0.50;;;4.50;99.90;;;;;;5072031;28;20020;-76
2022/11/23 02:26:23;;;;;;;1.02;0.30;;;4.40;99.90;;;;;;5090116;28;20028;-76
2022/11/23 02:28:54;;;;;;;1.85;0.40;;;4.80;99.90;;;;;;5089994;28;20285;-75
2022/11/23 02:31:20;;;;;;;0.30;0.30;;;4.70;99.90;;;;;;5090016;28;20028;-76
2022/11/23 02:33:45;;;;;;;2.50;0.30;;;4.20;99.90;;;;;;5089503;28;20020;-74
2022/11/23 02:36:35;;;;;;;1.05;0.40;;;4.00;99.90;;;;;;5090228;28;20073;-76
2022/11/23 02:39:23;;;;;;;0.95;0.50;;;3.80;99.90;;;;;;5090200;28;20103;-75
2022/11/23 02:41:51;;;;;;;2.45;0.28;;;3.70;99.90;;;;;;5070373;28;20404;-75
2022/11/23 02:44:19;;;;;;;0.55;0.55;;;5.70;99.90;;;;;;5088399;28;20016;-75
2022/11/23 02:46:45;;;;;;;5.45;0.32;;;3.40;99.90;;;;;;5070211;28;20392;-75
2022/11/23 02:49:11;;;;;;;1.27;0.85;;;3.20;99.90;;;;;;5088204;28;20026;-75
2022/11/23 02:51:37;;;;;;;2.13;0.30;;;3.20;99.90;;;;;;5087994;28;20063;-76
2022/11/23 02:54:03;;;;;;;0.88;0.60;;;3.00;99.90;;;;;;5069885;28;20020;-76
2022/11/23 02:56:28;;;;;;;1.65;1.55;;;2.80;99.90;;;;;;5088154;28;20024;-76
2022/11/23 02:58:54;;;;;;;9.35;1.77;;;2.70;99.90;;;;;;5088237;28;20065;-76
2022/11/23 03:01:19;;;;;;;0.40;0.40;;;2.50;99.90;;;;;;5070827;28;20280;-76
2022/11/23 03:03:45;;;;;;;2.80;0.70;;;2.50;99.90;;;;;;5071235;28;20032;-76
2022/11/23 03:06:11;;;;;;;0.98;0.50;;;2.50;99.90;;;;;;5089331;28;20020;-75
2022/11/23 03:08:36;;;;;;;0.95;0.80;;;2.30;99.90;;;;;;5089312;28;20039;-76
2022/11/23 03:11:02;;;;;;;0.73;0.32;;;4.20;99.90;;;;;;5089140;28;20478;-76
2022/11/23 03:13:28;;;;;;;6.47;0.57;;;2.40;99.90;;;;;;5071025;28;20020;-76
2022/11/23 03:15:58;;;;;;;0.35;0.25;;;2.10;99.90;;;;;;5071156;28;20056;-75
2022/11/23 03:18:24;;;;;;;0.63;0.30;;;2.00;99.90;;;;;;5089181;28;20024;-75
2022/11/23 03:20:50;;;;;;;0.30;0.30;;;2.00;99.90;;;;;;5088807;28;20020;-76
2022/11/23 03:23:16;;;;;;;0.30;0.30;;;2.00;99.90;;;;;;5089087;28;20028;-75
2022/11/23 03:25:41;;;;;;;1.55;1.25;;;2.50;99.90;;;;;;5089133;28;20067;-76
2022/11/23 03:28:07;;;;;;;1.35;0.43;;;1.90;99.90;;;;;;5089181;28;20032;-76
2022/11/23 03:30:33;;;;;;;0.65;0.65;;;1.80;99.90;;;;;;5089141;28;20081;-75
2022/11/23 03:32:58;;;;;;;1.40;0.40;;;2.20;99.90;;;;;;5089616;28;20032;-76
2022/11/23 03:35:24;;;;;;;2.25;0.40;;;1.70;99.90;;;;;;5074601;28;20073;-75
2022/11/23 03:37:50;;;;;;;2.60;0.30;;;1.70;99.90;;;;;;5092916;28;20024;-76
2022/11/23 03:40:15;;;;;;;0.30;0.30;;;1.60;99.90;;;;;;5092948;28;20464;-76
2022/11/23 03:42:41;;;;;;;0.30;0.20;;;1.70;99.90;;;;;;5093050;28;20031;-75
2022/11/23 03:45:08;;;;;;;0.20;0.20;;;1.70;99.90;;;;;;5092767;28;20420;-76
2022/11/23 03:47:33;;;;;;;2.33;0.32;;;1.70;99.90;;;;;;5093162;28;20024;-76
2022/11/23 03:49:59;;;;;;;0.25;0.25;;;2.10;99.90;;;;;;5092741;28;20073;-75
2022/11/23 03:52:25;;;;;;;2.65;0.25;;;2.80;99.90;;;;;;5092703;28;20122;-76
2022/11/23 03:54:50;;;;;;;0.30;0.30;;;1.70;99.90;;;;;;5092597;28;20020;-76
2022/11/23 03:57:16;;;;;;;0.43;0.43;;;3.60;99.90;;;;;;5092742;28;20061;-75
2022/11/23 03:59:42;;;;;;;0.77;0.30;;;1.70;99.90;;;;;;5074455;28;20052;-76
2022/11/23 04:02:08;;;;;;;0.47;0.45;;;;;;;;;;5074214;28;20043;-76
2022/11/23 04:04:34;;;;;;;0.28;0.28;;;1.60;99.90;;;;;;5073811;28;20020;-76
2022/11/23 04:06:59;;;;;;;0.75;0.30;;;1.60;99.90;;;;;;5092490;28;20022;-75
2022/11/23 04:09:25;;;;;;;0.20;0.20;;;3.20;99.90;;;;;;5074317;28;20480;-76
2022/11/23 04:11:50;;;;;;;0.93;0.40;;;1.60;99.90;;;;;;5092243;28;20044;-75
2022/11/23 04:14:16;;;;;;;0.55;0.45;;;2.60;99.90;;;;;;5092358;28;20029;-76
2022/11/23 04:16:42;;;;;;;0.30;0.30;;;1.40;99.90;;;;;;5092103;28;20149;-75
2022/11/23 04:19:08;;;;;;;0.38;0.30;;;2.60;99.90;;;;;;5091846;28;20377;-75
2022/11/23 04:21:34;;;;;;;1.98;0.98;;;1.20;99.90;;;;;;5092141;28;20032;-76
2022/11/23 04:23:59;;;;;;;0.35;0.20;;;1.10;99.90;;;;;;5092155;28;20468;-75
2022/11/23 04:26:25;;;;;;;0.77;0.70;;;1.00;99.90;;;;;;5092140;28;20499;-75
2022/11/23 04:28:51;;;;;;;0.20;0.20;;;1.50;99.90;;;;;;5092020;28;20031;-75
2022/11/23 04:31:16;;;;;;;0.95;0.65;;;0.80;99.90;;;;;;5091821;28;20040;-75
2022/11/23 04:33:42;;;;;;;2.13;0.90;;;0.70;99.90;;;;;;5066443;28;20031;-75
2022/11/23 04:36:08;;;;;;;0.98;0.80;;;0.60;99.90;;;;;;5083401;28;20020;-76
2022/11/23 04:38:33;;;;;;;0.30;0.30;;;0.60;99.90;;;;;;5091541;28;20377;-75
2022/11/23 04:40:59;;;;;;;2.17;0.38;;;0.60;99.90;;;;;;5091623;28;20032;-75
2022/11/23 04:43:25;;;;;;;0.70;0.30;;;0.80;99.90;;;;;;5073416;28;20020;-76
2022/11/23 04:45:50;;;;;;;0.32;0.20;;;1.80;99.90;;;;;;5091625;28;20113;-75
2022/11/23 04:48:16;;;;;;;0.30;0.30;;;1.80;99.90;;;;;;5091532;28;20504;-75
2022/11/23 04:50:42;;;;;;;0.17;0.17;;;2.10;99.90;;;;;;5091177;28;20565;-75
2022/11/23 04:53:08;;;;;;;3.35;0.47;;;0.30;99.90;;;;;;5073393;28;20036;-75
2022/11/23 04:55:33;;;;;;;1.55;0.68;;;0.20;99.90;;;;;;5091430;28;20472;-75
2022/11/23 04:57:59;;;;;;;0.50;0.50;;;0.60;99.90;;;;;;5073157;28;20024;-76
2022/11/23 05:00:25;;;;;;;0.50;0.50;;;0.10;99.90;;;;;;5091371;28;20048;-75
2022/11/23 05:02:51;;;;;;;0.43;0.20;;;0.10;99.90;;;;;;5091327;28;20642;-76
2022/11/23 05:05:17;;;;;;;0.70;0.35;;;;;;;;;;5090994;28;20365;-75
2022/11/23 05:07:43;;;;;;;0.65;0.20;;;0.10;99.90;;;;;;5072845;28;20085;-75
2022/11/23 05:10:09;;;;;;;2.72;1.02;;;0.20;99.90;;;;;;5091149;28;20032;-75
2022/11/23 05:12:35;;;;;;;5.47;0.40;;;0.10;99.90;;;;;;5091545;28;20067;-76
2022/11/23 05:15:02;;;;;;;0.98;0.30;;;1.20;99.90;;;;;;5091066;28;20479;-76
2022/11/23 05:17:27;;;;;;;0.40;0.40;;;0.50;99.90;;;;;;5091095;28;20024;-75
2022/11/23 05:19:55;;;;;;;2.30;1.27;;;-0.10;99.90;;;;;;5072810;28;20376;-75
2022/11/23 05:22:20;;;;;;;0.30;0.30;;;-0.10;99.90;;;;;;5091170;28;20031;-75
2022/11/23 05:24:46;;;;;;;0.20;0.20;;;;;;;;;;5072853;28;20020;-75
2022/11/23 05:27:12;;;;;;;2.83;0.93;;;-0.10;99.90;;;;;;5090926;28;20187;-75
2022/11/23 05:29:38;;;;;;;3.63;0.30;;;0.40;99.90;;;;;;5090896;28;20157;-75
2022/11/23 05:32:04;;;;;;;4.25;0.75;;;0.00;99.90;;;;;;5072542;28;20036;-75
2022/11/23 05:34:29;;;;;;;0.40;0.32;;;-0.10;99.90;;;;;;5072508;28;20066;-75
2022/11/23 05:36:55;;;;;;;0.40;0.40;;;0.30;99.90;;;;;;5090866;28;20043;-75
2022/11/23 05:39:21;;;;;;;4.05;0.38;;;-0.30;99.90;;;;;;5090670;28;20038;-75
2022/11/23 05:41:47;;;;;;;0.70;0.30;;;0.40;99.90;;;;;;5090764;28;20059;-75
2022/11/23 05:44:13;;;;;;;0.45;0.40;;;-0.40;99.90;;;;;;5090554;28;20484;-75
2022/11/23 05:46:38;;;;;;;0.32;0.30;;;0.00;99.90;;;;;;5090437;28;20031;-75
2022/11/23 05:49:04;;;;;;;0.88;0.68;;;0.20;99.90;;;;;;5072093;28;20020;-75
2022/11/23 05:51:31;;;;;;;0.95;0.40;;;0.40;99.90;;;;;;5071921;28;20392;-75
2022/11/23 05:53:57;;;;;;;1.00;1.00;;;0.80;99.90;;;;;;5072541;28;20024;-76
2022/11/23 05:56:23;;;;;;;3.55;0.40;;;-0.60;99.90;;;;;;5089851;28;20065;-76
2022/11/23 05:58:48;;;;;;;10.48;6.38;;;0.40;99.90;;;;;;5090425;28;20020;-75
2022/11/23 06:01:14;;;;;;;4.13;1.42;;;0.50;99.90;;;;;;5090448;28;20392;-75
2022/11/23 06:03:40;;;;;;;1.65;0.85;;;-0.60;99.90;;;;;;5071742;28;20081;-75
2022/11/23 06:06:06;;;;;;;4.13;1.00;;;-0.60;99.90;;;;;;5072416;28;20043;-75
2022/11/23 06:08:31;;;;;;;0.57;0.57;;;-0.60;99.90;;;;;;5089710;28;20390;-75
2022/11/23 06:11:00;;;;;;;5.35;1.20;;;-0.30;99.90;;;;;;5071875;28;20121;-75
2022/11/23 06:13:25;;;;;;;1.92;1.80;;;-0.40;99.90;;;;;;5090111;28;20028;-75
2022/11/23 06:15:51;;;;;;;3.33;2.10;;;-0.80;99.90;;;;;;5090004;28;20043;-74
2022/11/23 06:18:17;;;;;;;5.97;1.90;;;-0.10;99.90;;;;;;5090055;28;20415;-75
2022/11/23 06:20:42;;;;;;;2.88;2.15;;;0.30;99.90;;;;;;5089749;28;20036;-75
2022/11/23 06:23:08;;;;;;;1.23;1.13;;;0.80;99.90;;;;;;5089857;28;20028;-75
2022/11/23 06:25:34;;;;;;;6.75;3.40;;;0.90;99.90;;;;;;5071653;28;20028;-75
2022/11/23 06:28:00;;;;;;;4.78;1.60;;;1.10;99.90;;;;;;5072442;28;20020;-75
2022/11/23 06:30:27;;;;;;;2.03;1.15;;;-0.80;99.90;;;;;;5089883;28;20047;-76
2022/11/23 06:32:53;;;;;;;2.45;0.68;;;0.00;99.90;;;;;;5071662;28;20036;-75
2022/11/23 06:35:19;;;;;;;0.90;0.90;;;-1.00;99.90;;;;;;5071416;28;20020;-75
2022/11/23 06:37:48;;;;;;;3.38;1.10;;;0.30;99.90;;;;;;5071697;28;20097;-75
2022/11/23 06:40:13;;;;;;;6.63;3.90;;;-0.90;99.90;;;;;;5089925;28;20417;-75
2022/11/23 06:42:39;;;;;;;3.25;2.33;;;-1.00;99.90;;;;;;5071554;28;20024;-75
2022/11/23 06:45:05;;;;;;;8.57;4.38;;;-1.00;99.90;;;;;;5089660;28;20464;-74
2022/11/23 06:47:31;;;;;;;2.85;2.60;;;-1.00;99.90;;;;;;5088894;28;20115;-75
2022/11/23 06:49:57;;;;;;;5.38;3.33;;;0.60;99.90;;;;;;5069065;28;20474;-75
2022/11/23 06:52:23;;;;;;;5.80;4.88;;;-1.10;99.90;;;;;;5068779;28;20040;-75
2022/11/23 06:54:48;;;;;;;11.30;9.07;;;-0.20;99.90;;;;;;5068877;28;20112;-75
2022/11/23 06:57:15;;;;;;;2.60;2.40;;;-0.50;99.90;;;;;;5069218;28;20070;-75
2022/11/23 06:59:40;;;;;;;1.42;1.30;;;0.10;99.90;;;;;;5069149;28;20367;-75
2022/11/23 07:02:06;;;;;;;3.17;1.48;;;0.40;99.90;;;;;;5051515;28;20085;-75
2022/11/23 07:04:32;;;;;;;1.42;0.80;;;-1.10;99.90;;;;;;5069227;28;20047;-75
2022/11/23 07:06:57;;;;;;;0.68;0.68;;;-1.10;99.90;;;;;;5069918;28;20031;-75
2022/11/23 07:09:23;;;;;;;1.50;1.40;;;-1.00;99.90;;;;;;5073455;28;20154;-75
2022/11/23 07:11:49;;;;;;;1.42;1.02;;;-0.70;99.90;;;;;;5073295;28;20071;-75
2022/11/23 07:14:14;;;;;;;3.55;1.10;;;-0.10;99.90;;;;;;5073084;28;20384;-75
2022/11/23 07:16:41;;;;;;;4.00;1.85;;;-0.90;99.90;;;;;;5073268;28;20218;-75
2022/11/23 07:19:07;;;;;;;1.23;0.68;;;-0.10;99.90;;;;;;5072356;28;20040;-75
2022/11/23 07:21:32;;;;;;;3.67;1.00;;;-0.20;99.90;;;;;;5073110;28;20110;-75
2022/11/23 07:23:58;;;;;;;1.35;1.25;;;0.50;99.90;;;;;;5055408;28;20374;-75
2022/11/23 07:26:24;;;;;;;1.02;1.02;;;-0.30;99.90;;;;;;5072914;28;20033;-75
2022/11/23 07:28:49;;;;;;;1.48;0.80;;;-0.60;99.90;;;;;;5073440;28;20020;-75
2022/11/23 07:31:15;;;;;;;1.63;1.52;;;1.80;99.90;;;;;;5072828;28;20531;-75
2022/11/23 07:33:46;;;;;;;9.27;2.65;;;2.10;99.90;;;;;;5072636;28;20034;-75
2022/11/23 07:36:13;;;;;;;3.22;1.55;;;-0.90;99.90;;;;;;5072961;28;20259;-75
2022/11/23 07:38:39;;;;;;;4.97;3.03;;;-0.90;99.90;;;;;;5072987;28;20461;-75
2022/11/23 07:41:04;;;;;;;14.95;5.68;;;1.90;99.90;;;;;;5072979;28;20112;-75
2022/11/23 07:43:30;;;;;;;3.83;2.75;;;-0.80;99.90;;;;;;5072910;28;20473;-75
2022/11/23 07:45:56;;;;;;;8.00;3.35;;;-0.70;99.90;;;;;;5072641;28;20126;-75
2022/11/23 07:48:22;;;;;;;7.75;2.70;;;0.50;99.90;;;;;;5072513;28;20047;-76
2022/11/23 07:50:51;;;;;;;1.88;1.67;;;-0.50;99.90;;;;;;5072161;28;20048;-75
2022/11/23 07:53:17;;;;;;;1.30;1.20;;;0.60;99.90;;;;;;5072466;28;20503;-75
2022/11/23 07:55:43;;;;;;;0.75;0.75;;;2.40;99.90;;;;;;5072453;28;20028;-75
2022/11/23 07:58:09;;;;;;;1.25;0.70;;;2.10;99.90;;;;;;5072326;28;20031;-75
2022/11/23 08:00:35;;;;;;;1.00;0.60;;;-0.20;99.90;;;;;;5072389;28;20025;-75
2022/11/23 08:03:00;;;;;;;0.40;0.40;;;0.10;99.90;;;;;;5072310;28;20097;-75
2022/11/23 08:05:26;;;;;;;0.40;0.40;;;0.10;99.90;;;;;;5072167;28;20028;-75
2022/11/23 08:07:58;;;;;;;2.42;0.80;;;2.40;99.90;;;;;;5054251;28;20306;-75
2022/11/23 08:10:25;;;;;;;1.55;0.50;;;2.20;99.90;;;;;;5072131;28;20350;-75
2022/11/23 08:12:50;;;;;;;2.15;1.00;;;0.20;99.90;;;;;;5072179;28;20040;-75
2022/11/23 08:15:16;;;;;;;1.60;0.50;;;2.10;99.90;;;;;;5072034;28;20020;-75
2022/11/23 08:17:42;;;;;;;0.82;0.60;;;1.20;99.90;;;;;;5072079;28;20032;-75
2022/11/23 08:20:08;;;;;;;2.17;1.55;;;0.20;99.90;;;;;;5071093;28;20037;-75
2022/11/23 08:22:33;;;;;;;2.10;0.93;;;0.30;99.90;;;;;;5071831;28;20021;-75
2022/11/23 08:24:59;;;;;;;2.90;0.90;;;1.80;99.90;;;;;;5072061;28;20063;-75
2022/11/23 08:27:24;;;;;;;10.02;3.90;;;1.20;99.90;;;;;;5071861;28;20504;-75
2022/11/23 08:29:50;;;;;;;2.38;1.40;;;0.50;99.90;;;;;;5071938;28;20024;-75
2022/11/23 08:32:16;;;;;;;1.02;1.00;;;3.10;99.90;;;;;;5071832;28;20115;-75
2022/11/23 08:34:43;;;;;;;2.03;1.30;;;1.80;99.90;;;;;;5071443;28;20093;-75
2022/11/23 08:37:09;;;;;;;2.30;1.73;;;2.20;99.90;;;;;;5053992;28;20488;-75
2022/11/23 08:39:34;;;;;;;4.10;2.30;;;1.90;99.90;;;;;;5071590;28;20025;-75
2022/11/23 08:42:00;;;;;;;2.58;1.27;;;1.50;99.90;;;;;;5053656;28;20032;-75
2022/11/23 08:44:26;;;;;;;3.13;2.45;;;1.30;99.90;;;;;;5071533;28;20469;-76
2022/11/23 08:46:51;;;;;;;14.30;6.03;;;1.40;99.90;;;;;;5053371;28;20063;-75
2022/11/23 08:49:20;;;;;;;5.32;2.70;;;2.60;99.90;;;;;;5053355;28;20021;-76
2022/11/23 08:51:46;;;;;;;35.78;14.70;;;1.50;99.90;;;;;;5071146;28;20489;-75
2022/11/23 08:54:11;;;;;;;50.58;23.25;;;2.20;99.90;;;;;;5053324;28;20031;-75
2022/11/23 08:56:37;;;;;;;15.73;6.80;;;2.60;99.90;;;;;;5053452;28;20102;-75
2022/11/23 08:59:03;;;;;;;6.65;4.25;;;2.00;99.90;;;;;;5071426;28;20638;-75
2022/11/23 09:01:28;;;;;;;5.50;3.50;;;2.10;99.90;;;;;;5071377;28;20028;-76
2022/11/23 09:03:54;;;;;;;5.88;2.78;;;2.80;99.90;;;;;;5053078;28;20035;-75
2022/11/23 09:06:25;;;;;;;11.70;4.10;;;2.40;99.90;;;;;;5071103;28;20025;-75
2022/11/23 09:08:51;;;;;;;12.00;5.53;;;2.60;99.90;;;;;;5071522;28;20469;-76
2022/11/23 09:11:17;;;;;;;10.40;4.85;;;2.80;99.90;;;;;;5070958;28;20107;-75
2022/11/23 09:13:43;;;;;;;7.60;4.97;;;3.00;99.90;;;;;;5070973;28;20020;-75
2022/11/23 09:16:09;;;;;;;7.38;4.57;;;3.20;99.90;;;;;;5071773;28;20456;-76
2022/11/23 09:18:35;;;;;;;12.93;5.85;;;3.60;99.90;;;;;;5052998;28;20508;-75
2022/11/23 09:21:03;;;;;;;6.03;3.58;;;3.30;99.90;;;;;;5070961;28;20544;-75
2022/11/23 09:23:29;;;;;;;11.10;3.55;;;3.50;99.90;;;;;;5070855;28;20031;-76
2022/11/23 09:25:58;;;;;;;9.00;3.80;;;3.70;99.90;;;;;;5070748;28;20033;-75
2022/11/23 09:28:26;;;;;;;11.23;5.78;;;3.80;99.90;;;;;;5071119;28;20028;-75
2022/11/23 09:30:53;;;;;;;10.88;4.20;;;4.00;99.90;;;;;;5051902;28;20435;-75
2022/11/23 09:33:18;;;;;;;5.10;3.58;;;4.10;99.90;;;;;;5070721;28;20669;-75
2022/11/23 09:35:44;;;;;;;15.30;5.03;;;4.30;99.90;;;;;;5070657;28;20271;-75
2022/11/23 09:38:10;;;;;;;14.85;5.18;;;4.30;99.90;;;;;;5070551;28;20477;-76
2022/11/23 09:40:38;;;;;;;10.00;4.95;;;4.50;99.90;;;;;;5070861;28;20038;-75
2022/11/23 09:43:16;;;;;;;11.95;4.43;;;4.50;99.90;;;;;;5070463;28;20081;-75
2022/11/23 09:45:53;;;;;;;3.72;2.67;;;4.40;99.90;;;;;;5070442;28;20025;-75
2022/11/23 09:49:01;;;;;;;6.13;3.80;;;4.50;99.90;;;;;;5052174;28;20032;-76
2022/11/23 09:51:27;;;;;;;5.15;3.15;;;4.70;99.90;;;;;;5052081;28;20056;-76
2022/11/23 09:53:59;;;;;;;5.15;3.15;;;4.80;99.90;;;;;;5070300;28;20473;-75
2022/11/23 09:56:37;;;;;;;2.58;1.88;;;4.80;99.90;;;;;;5070293;28;20027;-75
2022/11/23 09:59:24;;;;;;;63.47;12.65;;;4.90;99.90;;;;;;5070402;28;20017;-76
2022/11/23 10:01:50;;;;;;;53.38;13.57;;;5.00;99.90;;;;;;5002229;28;20033;-76
2022/11/23 10:04:18;;;;;;;47.20;8.35;;;5.10;99.90;;;;;;5051962;28;20550;-75
2022/11/23 10:06:50;;;;;;;5.47;2.40;;;5.20;99.90;;;;;;5070119;28;20522;-76
2022/11/23 10:09:19;;;;;;;5.95;2.28;;;5.20;99.90;;;;;;5069971;28;20030;-76
2022/11/23 10:12:03;;;;;;;1.92;1.33;;;5.20;99.90;;;;;;5052216;28;20044;-76
2022/11/23 10:14:38;;;;;;;4.03;1.77;;;5.30;99.90;;;;;;5088621;28;20182;-76
2022/11/23 10:17:17;;;;;;;5.22;2.20;;;5.50;99.90;;;;;;5069794;28;20032;-75
2022/11/23 10:19:46;;;;;;;;;;;5.70;99.90;;;;;;5068594;28;20016;-77
2022/11/23 10:22:18;;;;;;;5.95;1.45;;;5.90;99.90;;;;;;5068716;28;19969;-77
2022/11/23 10:24:48;;;;;;;4.45;2.08;;;6.00;99.90;;;;;;5077849;28;20497;-76
2022/11/23 10:27:20;;;;;;;2.60;2.35;;;6.00;99.90;;;;;;5048534;28;20032;-76
2022/11/23 10:29:47;;;;;;;4.95;1.80;;;6.30;99.90;;;;;;5048918;28;20115;-77
2022/11/23 10:32:37;;;;;;;8.60;2.60;;;6.30;99.90;;;;;;5066337;28;20044;-77
2022/11/23 10:35:12;;;;;;;4.80;2.13;;;6.40;99.90;;;;;;5047931;28;20059;-74
2022/11/23 10:37:39;;;;;;;2.08;1.50;;;6.50;99.90;;;;;;5067729;28;20031;-76
2022/11/23 10:40:25;;;;;;;5.75;1.67;;;6.50;99.90;;;;;;5048559;28;20032;-75
2022/11/23 10:43:01;;;;;;;1.17;1.10;;;6.50;99.90;;;;;;5066673;28;20107;-76
2022/11/23 10:45:28;;;;;;;1.42;1.25;;;6.70;99.90;;;;;;5045475;28;20299;-75
2022/11/23 10:47:59;;;;;;;1.55;1.05;;;6.80;99.90;;;;;;5066183;28;20032;-77
2022/11/23 10:50:43;;;;;;;1.27;0.95;;;6.90;99.90;;;;;;5065549;28;20049;-76
2022/11/23 10:53:18;;;;;;;1.95;1.30;;;7.20;99.90;;;;;;5045208;28;20206;-75
2022/11/23 10:55:53;;;;;;;4.40;1.20;;;7.20;99.90;;;;;;5044482;28;20393;-76
2022/11/23 10:58:30;;;;;;;1.08;1.08;;;7.30;99.90;;;;;;5044481;28;20458;-76
2022/11/23 11:01:10;;;;;;;6.53;0.90;;;7.30;99.90;;;;;;5051796;28;20070;-76
2022/11/23 11:03:36;;;;;;;0.93;0.93;;;7.30;99.90;;;;;;5058975;28;20029;-76
2022/11/23 11:06:03;;;;;;;1.02;0.85;;;7.50;99.90;;;;;;5045608;28;20032;-76
2022/11/23 11:08:34;;;;;;;0.75;0.55;;;7.50;99.90;;;;;;5045855;28;20466;-76
2022/11/23 11:11:07;;;;;;;0.80;0.80;;;7.60;99.90;;;;;;5044483;28;20036;-77
2022/11/23 11:13:47;;;;;;;1.48;0.45;;;7.60;99.90;;;;;;5044390;28;20033;-76
2022/11/23 11:16:23;;;;;;;1.55;0.70;;;7.70;99.90;;;;;;5044653;28;20196;-76
2022/11/23 11:18:49;;;;;;;1.17;0.55;;;7.90;99.90;;;;;;5057434;28;20023;-76
2022/11/23 11:21:22;;;;;;;3.22;0.60;;;10.40;99.90;;;;;;5063893;28;20028;-77
2022/11/23 11:23:59;;;;;;;1.48;0.80;;;7.90;99.90;;;;;;5065784;28;20427;-76
2022/11/23 11:26:27;;;;;;;1.85;0.75;;;8.10;99.70;;;;;;5065666;28;20186;-77
2022/11/23 11:28:56;;;;;;;0.57;0.57;;;8.20;99.80;;;;;;5065899;28;20089;-76
2022/11/23 11:31:46;;;;;;;1.30;0.77;;;8.30;99.90;;;;;;5064199;28;20043;-76
2022/11/23 11:34:23;;;;;;;0.93;0.50;;;8.40;99.90;;;;;;5065419;28;20053;-77
2022/11/23 11:37:00;;;;;;;0.57;0.57;;;8.40;99.80;;;;;;5063036;28;20020;-76
2022/11/23 11:40:15;;;;;;;0.70;0.70;;;8.50;99.20;;;;;;5051682;28;20072;-77
2022/11/23 11:42:47;;;;;;;3.65;1.40;;;8.70;98.90;;;;;;4971010;28;20029;-78
2022/11/23 11:45:35;;;;;;;1.67;0.57;;;8.60;98.50;;;;;;5043971;28;20061;-79
2022/11/23 11:48:07;;;;;;;2.42;0.68;;;8.70;97.10;;;;;;5045372;28;20052;-77
2022/11/23 11:50:42;;;;;;;0.52;0.52;;;8.70;94.40;;;;;;5052348;28;20083;-76
2022/11/23 11:53:16;;;;;;;0.43;0.43;;;8.80;95.60;;;;;;5047219;28;20063;-78
2022/11/23 11:55:47;;;;;;;0.90;0.90;;;8.90;95.50;;;;;;5069087;28;20531;-78
2022/11/23 11:58:17;;;;;;;0.50;0.50;;;8.90;95.50;;;;;;5068859;28;20056;-76
2022/11/23 12:00:44;;;;;;;0.55;0.55;;;9.00;94.60;;;;;;5054839;28;20113;-78
2022/11/23 12:03:20;;;;;;;1.17;0.70;;;;;;;;;;5089779;28;20030;-77
2022/11/23 12:05:49;;;;;;;1.00;0.93;;;11.80;93.30;;;;;;5089311;28;20020;-79
2022/11/23 12:08:23;;;;;;;1.95;0.65;;;9.50;90.50;;;;;;5089080;28;20081;-77
2022/11/23 12:10:56;;;;;;;1.25;0.60;;;9.60;90.60;;;;;;5072133;28;20343;-77
2022/11/23 12:13:34;;;;;;;1.00;0.40;;;9.90;90.40;;;;;;5075535;28;20055;-77
2022/11/23 12:16:34;;;;;;;1.58;0.52;;;10.00;89.10;;;;;;5052874;28;20052;-77
2022/11/23 12:19:13;;;;;;;2.17;0.75;;;10.20;88.50;;;;;;5068018;28;20497;-77
2022/11/23 12:21:47;;;;;;;0.30;0.22;;;10.50;84.80;;;;;;5061269;28;20504;-76
2022/11/23 12:24:51;;;;;;;0.75;0.75;;;10.60;85.20;;;;;;5050634;28;20041;-76
2022/11/23 12:27:28;;;;;;;0.77;0.63;;;11.20;83.20;;;;;;5071818;28;20201;-77
2022/11/23 12:30:13;;;;;;;2.67;0.50;;;11.80;80.20;;;;;;5068055;28;20043;-79
2022/11/23 12:33:01;;;;;;;0.93;0.93;;;12.10;79.20;;;;;;5051236;28;20067;-76
2022/11/23 12:35:32;;;;;;;0.20;0.20;;;12.30;77.30;;;;;;5067796;28;20511;-77
2022/11/23 12:38:04;;;;;;;0.43;0.32;;;12.50;74.80;;;;;;5049348;28;20057;-76
2022/11/23 12:40:33;;;;;;;0.50;0.50;;;12.50;75.40;;;;;;5049573;28;20131;-76
2022/11/23 12:43:09;;;;;;;3.00;0.40;;;12.70;75.60;;;;;;5049682;28;20152;-76
2022/11/23 12:45:50;;;;;;;0.60;0.45;;;12.80;73.50;;;;;;5049595;28;20032;-76
2022/11/23 12:48:40;;;;;;;0.60;0.60;;;13.00;71.30;;;;;;5049550;28;20028;-76
2022/11/23 12:51:15;;;;;;;0.45;0.45;;;13.00;69.70;;;;;;5067575;28;20040;-77
2022/11/23 12:54:26;;;;;;;0.52;0.22;;;13.30;69.10;;;;;;5068290;28;20064;-76
2022/11/23 12:57:11;;;;;;;0.35;0.17;;;13.80;67.50;;;;;;5025704;28;20029;-76
2022/11/23 12:59:50;;;;;;;0.40;0.20;;;15.10;60.70;;;;;;5047004;28;20064;-76
2022/11/23 13:02:53;;;;;;;0.20;0.20;;;15.50;61.20;;;;;;5068851;28;20024;-76
2022/11/23 13:05:49;;;;;;;0.30;0.17;;;15.60;61.40;;;;;;5090224;28;20051;-76